sensor_id;sensor_type;location;lat;lon;timestamp;P1;durP1;ratioP1;P2;durP2;ratioP2
1308;SDS011;647;48.840;9.314;2022-09-01T00:00:49;65.40;;;7.30;;
1308;SDS011;647;48.840;9.314;2022-09-01T00:03:19;62.70;;;7.30;;
1308;SDS011;647;48.840;9.314;2022-09-01T00:05:48;63.50;;;7.03;;
1308;SDS011;647;48.840;9.314;2022-09-01T00:08:18;63.60;;;7.50;;
1308;SDS011;647;48.840;9.314;2022-09-01T00:10:46;62.57;;;7.20;;
1308;SDS011;647;48.840;9.314;2022-09-01T00:13:13;67.03;;;6.93;;
1308;SDS011;647;48.840;9.314;2022-09-01T00:15:40;62.37;;;5.87;;
1308;SDS011;647;48.840;9.314;2022-09-01T00:18:08;62.50;;;6.27;;
1308;SDS011;647;48.840;9.314;2022-09-01T00:20:36;65.13;;;6.53;;
1308;SDS011;647;48.840;9.314;2022-09-01T00:23:03;63.20;;;6.73;;
1308;SDS011;647;48.840;9.314;2022-09-01T00:25:31;63.80;;;7.03;;
1308;SDS011;647;48.840;9.314;2022-09-01T00:27:58;62.00;;;6.60;;
1308;SDS011;647;48.840;9.314;2022-09-01T00:30:28;63.40;;;7.20;;
1308;SDS011;647;48.840;9.314;2022-09-01T00:32:56;63.40;;;7.10;;
1308;SDS011;647;48.840;9.314;2022-09-01T00:35:23;62.20;;;5.90;;
1308;SDS011;647;48.840;9.314;2022-09-01T00:37:51;62.57;;;6.70;;
1308;SDS011;647;48.840;9.314;2022-09-01T00:40:18;64.70;;;7.00;;
1308;SDS011;647;48.840;9.314;2022-09-01T00:42:46;63.03;;;6.70;;
1308;SDS011;647;48.840;9.314;2022-09-01T00:45:13;63.70;;;6.60;;
1308;SDS011;647;48.840;9.314;2022-09-01T00:47:41;67.43;;;7.07;;
1308;SDS011;647;48.840;9.314;2022-09-01T00:50:08;62.57;;;6.20;;
1308;SDS011;647;48.840;9.314;2022-09-01T00:52:37;61.40;;;5.60;;
1308;SDS011;647;48.840;9.314;2022-09-01T00:55:08;63.00;;;6.40;;
1308;SDS011;647;48.840;9.314;2022-09-01T00:57:36;65.77;;;7.63;;
1308;SDS011;647;48.840;9.314;2022-09-01T01:00:05;62.67;;;6.40;;
1308;SDS011;647;48.840;9.314;2022-09-01T01:02:35;64.57;;;7.87;;
1308;SDS011;647;48.840;9.314;2022-09-01T01:05:03;63.67;;;7.47;;
1308;SDS011;647;48.840;9.314;2022-09-01T01:07:30;68.57;;;7.70;;
1308;SDS011;647;48.840;9.314;2022-09-01T01:10:08;65.30;;;7.17;;
1308;SDS011;647;48.840;9.314;2022-09-01T01:12:37;65.23;;;8.30;;
1308;SDS011;647;48.840;9.314;2022-09-01T01:15:05;65.63;;;7.17;;
1308;SDS011;647;48.840;9.314;2022-09-01T01:17:33;63.40;;;7.33;;
1308;SDS011;647;48.840;9.314;2022-09-01T01:20:00;64.20;;;6.53;;
1308;SDS011;647;48.840;9.314;2022-09-01T01:22:48;65.77;;;7.20;;
1308;SDS011;647;48.840;9.314;2022-09-01T01:25:31;62.27;;;6.20;;
1308;SDS011;647;48.840;9.314;2022-09-01T01:28:04;65.37;;;8.40;;
1308;SDS011;647;48.840;9.314;2022-09-01T01:30:31;62.70;;;5.77;;
1308;SDS011;647;48.840;9.314;2022-09-01T01:33:01;62.70;;;6.53;;
1308;SDS011;647;48.840;9.314;2022-09-01T01:35:28;63.77;;;7.30;;
1308;SDS011;647;48.840;9.314;2022-09-01T01:37:58;67.63;;;6.70;;
1308;SDS011;647;48.840;9.314;2022-09-01T01:40:26;71.63;;;6.73;;
1308;SDS011;647;48.840;9.314;2022-09-01T01:42:55;63.80;;;7.40;;
1308;SDS011;647;48.840;9.314;2022-09-01T01:45:25;64.70;;;7.33;;
1308;SDS011;647;48.840;9.314;2022-09-01T01:47:52;63.17;;;6.50;;
1308;SDS011;647;48.840;9.314;2022-09-01T01:50:20;64.07;;;7.20;;
1308;SDS011;647;48.840;9.314;2022-09-01T01:52:47;63.80;;;7.43;;
1308;SDS011;647;48.840;9.314;2022-09-01T01:55:15;66.23;;;8.73;;
1308;SDS011;647;48.840;9.314;2022-09-01T01:57:43;63.60;;;7.00;;
1308;SDS011;647;48.840;9.314;2022-09-01T02:00:16;63.07;;;7.13;;
1308;SDS011;647;48.840;9.314;2022-09-01T02:02:44;63.70;;;7.63;;
1308;SDS011;647;48.840;9.314;2022-09-01T02:05:16;63.13;;;6.40;;
1308;SDS011;647;48.840;9.314;2022-09-01T02:07:48;64.20;;;6.70;;
1308;SDS011;647;48.840;9.314;2022-09-01T02:10:15;62.87;;;5.73;;
1308;SDS011;647;48.840;9.314;2022-09-01T02:12:43;63.80;;;7.40;;
1308;SDS011;647;48.840;9.314;2022-09-01T02:15:10;63.70;;;7.03;;
1308;SDS011;647;48.840;9.314;2022-09-01T02:17:39;63.77;;;6.70;;
1308;SDS011;647;48.840;9.314;2022-09-01T02:20:09;62.13;;;6.47;;
1308;SDS011;647;48.840;9.314;2022-09-01T02:22:36;65.03;;;6.70;;
1308;SDS011;647;48.840;9.314;2022-09-01T02:25:03;62.97;;;7.07;;
1308;SDS011;647;48.840;9.314;2022-09-01T02:27:31;62.90;;;6.50;;
1308;SDS011;647;48.840;9.314;2022-09-01T02:29:59;62.70;;;6.60;;
1308;SDS011;647;48.840;9.314;2022-09-01T02:32:26;63.83;;;6.37;;
1308;SDS011;647;48.840;9.314;2022-09-01T02:34:55;63.20;;;6.27;;
1308;SDS011;647;48.840;9.314;2022-09-01T02:37:25;63.97;;;6.83;;
1308;SDS011;647;48.840;9.314;2022-09-01T02:39:53;64.63;;;8.10;;
1308;SDS011;647;48.840;9.314;2022-09-01T02:42:22;66.33;;;7.40;;
1308;SDS011;647;48.840;9.314;2022-09-01T02:44:51;65.80;;;7.03;;
1308;SDS011;647;48.840;9.314;2022-09-01T02:47:19;67.17;;;7.90;;
1308;SDS011;647;48.840;9.314;2022-09-01T02:49:47;64.00;;;6.77;;
1308;SDS011;647;48.840;9.314;2022-09-01T02:52:16;62.10;;;5.60;;
1308;SDS011;647;48.840;9.314;2022-09-01T02:54:44;63.23;;;7.00;;
1308;SDS011;647;48.840;9.314;2022-09-01T02:57:15;64.10;;;7.30;;
1308;SDS011;647;48.840;9.314;2022-09-01T02:59:42;63.13;;;7.23;;
1308;SDS011;647;48.840;9.314;2022-09-01T03:02:11;63.27;;;6.73;;
1308;SDS011;647;48.840;9.314;2022-09-01T03:04:38;62.87;;;7.00;;
1308;SDS011;647;48.840;9.314;2022-09-01T03:07:05;63.93;;;7.23;;
1308;SDS011;647;48.840;9.314;2022-09-01T03:09:34;64.77;;;7.33;;
1308;SDS011;647;48.840;9.314;2022-09-01T03:12:03;65.40;;;7.10;;
1308;SDS011;647;48.840;9.314;2022-09-01T03:14:31;63.30;;;6.53;;
1308;SDS011;647;48.840;9.314;2022-09-01T03:16:58;62.50;;;6.77;;
1308;SDS011;647;48.840;9.314;2022-09-01T03:19:25;64.00;;;6.40;;
1308;SDS011;647;48.840;9.314;2022-09-01T03:22:08;63.27;;;6.87;;
1308;SDS011;647;48.840;9.314;2022-09-01T03:24:36;63.80;;;7.43;;
1308;SDS011;647;48.840;9.314;2022-09-01T03:27:04;65.13;;;8.53;;
1308;SDS011;647;48.840;9.314;2022-09-01T03:29:31;63.33;;;7.40;;
1308;SDS011;647;48.840;9.314;2022-09-01T03:31:58;66.00;;;7.90;;
1308;SDS011;647;48.840;9.314;2022-09-01T03:34:26;64.77;;;7.00;;
1308;SDS011;647;48.840;9.314;2022-09-01T03:36:53;65.87;;;8.00;;
1308;SDS011;647;48.840;9.314;2022-09-01T03:39:20;64.20;;;7.03;;
1308;SDS011;647;48.840;9.314;2022-09-01T03:41:48;64.93;;;8.93;;
1308;SDS011;647;48.840;9.314;2022-09-01T03:44:16;64.60;;;8.20;;
1308;SDS011;647;48.840;9.314;2022-09-01T03:46:43;64.67;;;7.10;;
1308;SDS011;647;48.840;9.314;2022-09-01T03:49:10;64.67;;;7.97;;
1308;SDS011;647;48.840;9.314;2022-09-01T03:51:49;64.70;;;7.70;;
1308;SDS011;647;48.840;9.314;2022-09-01T03:54:17;65.77;;;8.13;;
1308;SDS011;647;48.840;9.314;2022-09-01T03:56:50;62.10;;;6.10;;
1308;SDS011;647;48.840;9.314;2022-09-01T03:59:18;63.03;;;7.07;;
1308;SDS011;647;48.840;9.314;2022-09-01T04:01:46;63.90;;;7.27;;
1308;SDS011;647;48.840;9.314;2022-09-01T04:04:13;62.90;;;6.90;;
1308;SDS011;647;48.840;9.314;2022-09-01T04:06:41;63.10;;;7.10;;
1308;SDS011;647;48.840;9.314;2022-09-01T04:09:09;67.57;;;7.47;;
1308;SDS011;647;48.840;9.314;2022-09-01T04:11:36;64.87;;;8.07;;
1308;SDS011;647;48.840;9.314;2022-09-01T04:14:06;68.40;;;8.10;;
1308;SDS011;647;48.840;9.314;2022-09-01T04:16:33;65.23;;;7.17;;
1308;SDS011;647;48.840;9.314;2022-09-01T04:19:18;63.70;;;7.00;;
1308;SDS011;647;48.840;9.314;2022-09-01T04:21:50;65.97;;;7.43;;
1308;SDS011;647;48.840;9.314;2022-09-01T04:24:18;64.57;;;7.57;;
1308;SDS011;647;48.840;9.314;2022-09-01T04:26:48;65.10;;;8.87;;
1308;SDS011;647;48.840;9.314;2022-09-01T04:29:16;64.00;;;7.63;;
1308;SDS011;647;48.840;9.314;2022-09-01T04:31:48;65.20;;;8.97;;
1308;SDS011;647;48.840;9.314;2022-09-01T04:34:17;65.63;;;7.67;;
1308;SDS011;647;48.840;9.314;2022-09-01T04:36:44;66.73;;;8.03;;
1308;SDS011;647;48.840;9.314;2022-09-01T04:39:12;62.73;;;7.07;;
1308;SDS011;647;48.840;9.314;2022-09-01T04:41:40;65.83;;;8.07;;
1308;SDS011;647;48.840;9.314;2022-09-01T04:44:10;65.80;;;8.40;;
1308;SDS011;647;48.840;9.314;2022-09-01T04:46:39;62.57;;;6.90;;
1308;SDS011;647;48.840;9.314;2022-09-01T04:49:10;62.50;;;7.37;;
1308;SDS011;647;48.840;9.314;2022-09-01T04:51:44;65.80;;;8.60;;
1308;SDS011;647;48.840;9.314;2022-09-01T04:54:11;63.10;;;7.47;;
1308;SDS011;647;48.840;9.314;2022-09-01T04:56:40;68.00;;;9.10;;
1308;SDS011;647;48.840;9.314;2022-09-01T04:59:08;63.20;;;7.10;;
1308;SDS011;647;48.840;9.314;2022-09-01T05:01:36;66.90;;;8.40;;
1308;SDS011;647;48.840;9.314;2022-09-01T05:04:09;65.50;;;7.67;;
1308;SDS011;647;48.840;9.314;2022-09-01T05:06:38;68.57;;;8.93;;
1308;SDS011;647;48.840;9.314;2022-09-01T05:09:06;66.40;;;9.73;;
1308;SDS011;647;48.840;9.314;2022-09-01T05:11:35;67.00;;;7.30;;
1308;SDS011;647;48.840;9.314;2022-09-01T05:14:03;63.87;;;8.27;;
1308;SDS011;647;48.840;9.314;2022-09-01T05:16:31;64.80;;;9.60;;
1308;SDS011;647;48.840;9.314;2022-09-01T05:18:59;64.47;;;7.73;;
1308;SDS011;647;48.840;9.314;2022-09-01T05:21:28;66.83;;;8.40;;
1308;SDS011;647;48.840;9.314;2022-09-01T05:23:56;68.17;;;8.10;;
1308;SDS011;647;48.840;9.314;2022-09-01T05:26:25;65.60;;;8.50;;
1308;SDS011;647;48.840;9.314;2022-09-01T05:28:54;64.90;;;8.30;;
1308;SDS011;647;48.840;9.314;2022-09-01T05:31:22;66.00;;;8.80;;
1308;SDS011;647;48.840;9.314;2022-09-01T05:33:52;64.93;;;7.97;;
1308;SDS011;647;48.840;9.314;2022-09-01T05:36:22;64.13;;;7.67;;
1308;SDS011;647;48.840;9.314;2022-09-01T05:38:52;64.77;;;7.80;;
1308;SDS011;647;48.840;9.314;2022-09-01T05:41:19;63.40;;;7.00;;
1308;SDS011;647;48.840;9.314;2022-09-01T05:43:48;62.13;;;6.93;;
1308;SDS011;647;48.840;9.314;2022-09-01T05:46:17;67.00;;;6.80;;
1308;SDS011;647;48.840;9.314;2022-09-01T05:48:45;62.10;;;6.13;;
1308;SDS011;647;48.840;9.314;2022-09-01T05:51:14;63.53;;;7.80;;
1308;SDS011;647;48.840;9.314;2022-09-01T05:53:42;65.10;;;7.63;;
1308;SDS011;647;48.840;9.314;2022-09-01T05:56:11;65.40;;;8.47;;
1308;SDS011;647;48.840;9.314;2022-09-01T05:58:39;65.37;;;7.63;;
1308;SDS011;647;48.840;9.314;2022-09-01T06:01:14;65.17;;;10.73;;
1308;SDS011;647;48.840;9.314;2022-09-01T06:03:46;63.50;;;6.43;;
1308;SDS011;647;48.840;9.314;2022-09-01T06:06:14;64.13;;;7.60;;
1308;SDS011;647;48.840;9.314;2022-09-01T06:08:41;65.87;;;8.03;;
1308;SDS011;647;48.840;9.314;2022-09-01T06:11:09;64.47;;;7.87;;
1308;SDS011;647;48.840;9.314;2022-09-01T06:13:41;68.90;;;8.50;;
1308;SDS011;647;48.840;9.314;2022-09-01T06:16:11;65.23;;;7.20;;
1308;SDS011;647;48.840;9.314;2022-09-01T06:18:39;66.47;;;7.47;;
1308;SDS011;647;48.840;9.314;2022-09-01T06:21:07;64.07;;;8.20;;
1308;SDS011;647;48.840;9.314;2022-09-01T06:23:38;63.07;;;6.60;;
1308;SDS011;647;48.840;9.314;2022-09-01T06:26:05;64.23;;;7.80;;
1308;SDS011;647;48.840;9.314;2022-09-01T06:28:33;67.70;;;10.07;;
1308;SDS011;647;48.840;9.314;2022-09-01T06:31:06;64.27;;;8.10;;
1308;SDS011;647;48.840;9.314;2022-09-01T06:33:33;65.60;;;8.30;;
1308;SDS011;647;48.840;9.314;2022-09-01T06:36:01;69.97;;;8.33;;
1308;SDS011;647;48.840;9.314;2022-09-01T06:38:29;64.40;;;8.00;;
1308;SDS011;647;48.840;9.314;2022-09-01T06:41:00;63.20;;;7.77;;
1308;SDS011;647;48.840;9.314;2022-09-01T06:43:28;64.70;;;7.97;;
1308;SDS011;647;48.840;9.314;2022-09-01T06:45:56;63.10;;;6.20;;
1308;SDS011;647;48.840;9.314;2022-09-01T06:48:25;68.63;;;9.30;;
1308;SDS011;647;48.840;9.314;2022-09-01T06:50:57;64.97;;;7.43;;
1308;SDS011;647;48.840;9.314;2022-09-01T06:53:27;63.20;;;6.90;;
1308;SDS011;647;48.840;9.314;2022-09-01T06:55:55;64.67;;;8.20;;
1308;SDS011;647;48.840;9.314;2022-09-01T06:58:22;64.73;;;7.20;;
1308;SDS011;647;48.840;9.314;2022-09-01T07:00:49;66.10;;;8.30;;
1308;SDS011;647;48.840;9.314;2022-09-01T07:03:16;64.43;;;7.07;;
1308;SDS011;647;48.840;9.314;2022-09-01T07:05:45;64.90;;;7.30;;
1308;SDS011;647;48.840;9.314;2022-09-01T07:08:14;64.10;;;7.97;;
1308;SDS011;647;48.840;9.314;2022-09-01T07:10:44;64.37;;;7.63;;
1308;SDS011;647;48.840;9.314;2022-09-01T07:13:11;65.50;;;7.63;;
1308;SDS011;647;48.840;9.314;2022-09-01T07:15:44;63.70;;;7.23;;
1308;SDS011;647;48.840;9.314;2022-09-01T07:18:13;63.30;;;8.50;;
1308;SDS011;647;48.840;9.314;2022-09-01T07:20:41;62.67;;;6.97;;
1308;SDS011;647;48.840;9.314;2022-09-01T07:23:11;63.43;;;6.80;;
1308;SDS011;647;48.840;9.314;2022-09-01T07:25:42;67.30;;;7.10;;
1308;SDS011;647;48.840;9.314;2022-09-01T07:28:09;63.50;;;6.73;;
1308;SDS011;647;48.840;9.314;2022-09-01T07:30:39;63.77;;;6.70;;
1308;SDS011;647;48.840;9.314;2022-09-01T07:33:06;62.30;;;5.97;;
1308;SDS011;647;48.840;9.314;2022-09-01T07:35:36;64.90;;;7.60;;
1308;SDS011;647;48.840;9.314;2022-09-01T07:38:03;63.63;;;6.50;;
1308;SDS011;647;48.840;9.314;2022-09-01T07:40:33;62.40;;;6.07;;
1308;SDS011;647;48.840;9.314;2022-09-01T07:43:02;62.03;;;5.57;;
1308;SDS011;647;48.840;9.314;2022-09-01T07:45:32;60.90;;;5.50;;
1308;SDS011;647;48.840;9.314;2022-09-01T07:48:01;63.77;;;6.33;;
1308;SDS011;647;48.840;9.314;2022-09-01T07:50:30;61.43;;;6.00;;
1308;SDS011;647;48.840;9.314;2022-09-01T07:52:58;61.50;;;5.77;;
1308;SDS011;647;48.840;9.314;2022-09-01T07:55:25;62.37;;;6.30;;
1308;SDS011;647;48.840;9.314;2022-09-01T07:57:54;60.80;;;5.57;;
1308;SDS011;647;48.840;9.314;2022-09-01T08:00:21;60.47;;;5.10;;
1308;SDS011;647;48.840;9.314;2022-09-01T08:02:48;60.20;;;4.80;;
1308;SDS011;647;48.840;9.314;2022-09-01T08:05:16;62.10;;;6.20;;
1308;SDS011;647;48.840;9.314;2022-09-01T08:07:46;60.83;;;6.10;;
1308;SDS011;647;48.840;9.314;2022-09-01T08:10:14;60.93;;;5.00;;
1308;SDS011;647;48.840;9.314;2022-09-01T08:12:41;62.23;;;5.63;;
1308;SDS011;647;48.840;9.314;2022-09-01T08:15:10;60.07;;;4.23;;
1308;SDS011;647;48.840;9.314;2022-09-01T08:17:37;60.40;;;4.80;;
1308;SDS011;647;48.840;9.314;2022-09-01T08:20:05;61.97;;;6.30;;
1308;SDS011;647;48.840;9.314;2022-09-01T08:22:33;60.57;;;4.90;;
1308;SDS011;647;48.840;9.314;2022-09-01T08:25:02;60.57;;;4.40;;
1308;SDS011;647;48.840;9.314;2022-09-01T08:27:30;60.77;;;4.57;;
1308;SDS011;647;48.840;9.314;2022-09-01T08:30:00;59.70;;;4.77;;
1308;SDS011;647;48.840;9.314;2022-09-01T08:32:28;63.00;;;5.47;;
1308;SDS011;647;48.840;9.314;2022-09-01T08:34:56;61.30;;;4.73;;
1308;SDS011;647;48.840;9.314;2022-09-01T08:37:23;59.03;;;4.10;;
1308;SDS011;647;48.840;9.314;2022-09-01T08:39:50;60.30;;;4.30;;
1308;SDS011;647;48.840;9.314;2022-09-01T08:42:20;60.00;;;5.23;;
1308;SDS011;647;48.840;9.314;2022-09-01T08:44:51;60.70;;;5.13;;
1308;SDS011;647;48.840;9.314;2022-09-01T08:47:21;59.17;;;4.03;;
1308;SDS011;647;48.840;9.314;2022-09-01T08:49:50;59.93;;;4.00;;
1308;SDS011;647;48.840;9.314;2022-09-01T08:52:19;59.30;;;3.60;;
1308;SDS011;647;48.840;9.314;2022-09-01T08:54:48;59.67;;;4.67;;
1308;SDS011;647;48.840;9.314;2022-09-01T08:57:17;58.70;;;3.53;;
1308;SDS011;647;48.840;9.314;2022-09-01T08:59:45;59.23;;;3.77;;
1308;SDS011;647;48.840;9.314;2022-09-01T09:02:18;60.67;;;3.57;;
1308;SDS011;647;48.840;9.314;2022-09-01T09:04:49;59.50;;;4.17;;
1308;SDS011;647;48.840;9.314;2022-09-01T09:07:23;60.10;;;3.90;;
1308;SDS011;647;48.840;9.314;2022-09-01T09:09:55;59.87;;;3.93;;
1308;SDS011;647;48.840;9.314;2022-09-01T09:12:26;58.87;;;3.17;;
1308;SDS011;647;48.840;9.314;2022-09-01T09:15:01;60.60;;;3.70;;
1308;SDS011;647;48.840;9.314;2022-09-01T09:17:33;59.30;;;3.93;;
1308;SDS011;647;48.840;9.314;2022-09-01T09:20:01;59.10;;;3.87;;
1308;SDS011;647;48.840;9.314;2022-09-01T09:22:30;58.40;;;3.20;;
1308;SDS011;647;48.840;9.314;2022-09-01T09:25:01;59.83;;;3.67;;
1308;SDS011;647;48.840;9.314;2022-09-01T09:27:29;59.70;;;4.50;;
1308;SDS011;647;48.840;9.314;2022-09-01T09:29:57;60.20;;;3.80;;
1308;SDS011;647;48.840;9.314;2022-09-01T09:32:40;61.57;;;3.70;;
1308;SDS011;647;48.840;9.314;2022-09-01T09:35:16;58.83;;;3.33;;
1308;SDS011;647;48.840;9.314;2022-09-01T09:37:45;59.20;;;3.23;;
1308;SDS011;647;48.840;9.314;2022-09-01T09:40:13;59.20;;;3.20;;
1308;SDS011;647;48.840;9.314;2022-09-01T09:42:41;58.80;;;3.20;;
1308;SDS011;647;48.840;9.314;2022-09-01T09:45:20;59.17;;;3.70;;
1308;SDS011;647;48.840;9.314;2022-09-01T09:47:47;59.50;;;3.57;;
1308;SDS011;647;48.840;9.314;2022-09-01T09:50:19;58.50;;;3.27;;
1308;SDS011;647;48.840;9.314;2022-09-01T09:52:50;59.10;;;3.60;;
1308;SDS011;647;48.840;9.314;2022-09-01T09:55:20;58.90;;;3.23;;
1308;SDS011;647;48.840;9.314;2022-09-01T09:57:48;58.57;;;3.03;;
1308;SDS011;647;48.840;9.314;2022-09-01T10:00:18;59.83;;;3.83;;
1308;SDS011;647;48.840;9.314;2022-09-01T10:02:45;58.77;;;3.57;;
1308;SDS011;647;48.840;9.314;2022-09-01T10:05:31;60.00;;;4.40;;
1308;SDS011;647;48.840;9.314;2022-09-01T10:08:01;60.10;;;3.80;;
1308;SDS011;647;48.840;9.314;2022-09-01T10:10:29;60.00;;;3.57;;
1308;SDS011;647;48.840;9.314;2022-09-01T10:12:57;58.63;;;3.43;;
1308;SDS011;647;48.840;9.314;2022-09-01T10:15:28;58.77;;;3.53;;
1308;SDS011;647;48.840;9.314;2022-09-01T10:17:57;58.80;;;2.90;;
1308;SDS011;647;48.840;9.314;2022-09-01T10:20:26;59.17;;;3.70;;
1308;SDS011;647;48.840;9.314;2022-09-01T10:22:53;58.87;;;3.07;;
1308;SDS011;647;48.840;9.314;2022-09-01T10:25:23;58.80;;;3.23;;
1308;SDS011;647;48.840;9.314;2022-09-01T10:27:52;59.10;;;3.70;;
1308;SDS011;647;48.840;9.314;2022-09-01T10:30:22;59.60;;;4.00;;
1308;SDS011;647;48.840;9.314;2022-09-01T10:32:50;58.50;;;3.50;;
1308;SDS011;647;48.840;9.314;2022-09-01T10:35:18;59.30;;;3.90;;
1308;SDS011;647;48.840;9.314;2022-09-01T10:37:48;58.60;;;3.20;;
1308;SDS011;647;48.840;9.314;2022-09-01T10:40:19;59.03;;;3.93;;
1308;SDS011;647;48.840;9.314;2022-09-01T10:42:48;58.70;;;3.20;;
1308;SDS011;647;48.840;9.314;2022-09-01T10:45:28;64.07;;;4.17;;
1308;SDS011;647;48.840;9.314;2022-09-01T10:47:56;58.40;;;2.90;;
1308;SDS011;647;48.840;9.314;2022-09-01T10:50:25;58.70;;;3.00;;
1308;SDS011;647;48.840;9.314;2022-09-01T10:52:57;59.53;;;3.03;;
1308;SDS011;647;48.840;9.314;2022-09-01T10:55:25;58.10;;;3.60;;
1308;SDS011;647;48.840;9.314;2022-09-01T10:58:01;58.60;;;2.80;;
1308;SDS011;647;48.840;9.314;2022-09-01T11:00:43;58.23;;;2.70;;
1308;SDS011;647;48.840;9.314;2022-09-01T11:05:59;58.53;;;3.30;;
1308;SDS011;647;48.840;9.314;2022-09-01T11:08:39;57.80;;;2.80;;
1308;SDS011;647;48.840;9.314;2022-09-01T11:11:08;59.10;;;3.13;;
1308;SDS011;647;48.840;9.314;2022-09-01T11:13:42;57.87;;;2.73;;
1308;SDS011;647;48.840;9.314;2022-09-01T11:19:20;58.30;;;3.27;;
1308;SDS011;647;48.840;9.314;2022-09-01T11:22:01;58.37;;;3.03;;
1308;SDS011;647;48.840;9.314;2022-09-01T11:24:46;58.30;;;3.07;;
1308;SDS011;647;48.840;9.314;2022-09-01T11:29:58;58.03;;;2.90;;
1308;SDS011;647;48.840;9.314;2022-09-01T11:32:30;58.77;;;3.00;;
1308;SDS011;647;48.840;9.314;2022-09-01T11:34:58;58.20;;;2.80;;
1308;SDS011;647;48.840;9.314;2022-09-01T11:37:27;57.90;;;3.00;;
1308;SDS011;647;48.840;9.314;2022-09-01T11:39:55;58.27;;;3.30;;
1308;SDS011;647;48.840;9.314;2022-09-01T11:42:24;57.97;;;2.90;;
1308;SDS011;647;48.840;9.314;2022-09-01T11:44:54;57.60;;;2.53;;
1308;SDS011;647;48.840;9.314;2022-09-01T11:47:24;57.70;;;2.73;;
1308;SDS011;647;48.840;9.314;2022-09-01T11:49:54;57.77;;;2.80;;
1308;SDS011;647;48.840;9.314;2022-09-01T11:52:24;57.97;;;2.70;;
1308;SDS011;647;48.840;9.314;2022-09-01T11:54:51;57.77;;;2.80;;
1308;SDS011;647;48.840;9.314;2022-09-01T11:57:29;57.57;;;2.43;;
1308;SDS011;647;48.840;9.314;2022-09-01T11:59:57;57.57;;;2.60;;
1308;SDS011;647;48.840;9.314;2022-09-01T12:02:27;57.43;;;2.30;;
1308;SDS011;647;48.840;9.314;2022-09-01T12:04:55;57.90;;;2.50;;
1308;SDS011;647;48.840;9.314;2022-09-01T12:07:24;57.37;;;2.80;;
1308;SDS011;647;48.840;9.314;2022-09-01T12:09:52;57.80;;;2.90;;
1308;SDS011;647;48.840;9.314;2022-09-01T12:12:27;58.17;;;3.00;;
1308;SDS011;647;48.840;9.314;2022-09-01T12:14:55;57.20;;;2.20;;
1308;SDS011;647;48.840;9.314;2022-09-01T12:17:23;58.17;;;3.00;;
1308;SDS011;647;48.840;9.314;2022-09-01T12:19:51;58.20;;;2.77;;
1308;SDS011;647;48.840;9.314;2022-09-01T12:22:19;60.77;;;2.93;;
1308;SDS011;647;48.840;9.314;2022-09-01T12:24:47;58.10;;;3.20;;
1308;SDS011;647;48.840;9.314;2022-09-01T12:27:15;58.20;;;3.10;;
1308;SDS011;647;48.840;9.314;2022-09-01T12:29:42;58.20;;;3.00;;
1308;SDS011;647;48.840;9.314;2022-09-01T12:32:09;57.57;;;2.60;;
1308;SDS011;647;48.840;9.314;2022-09-01T12:34:38;58.27;;;3.23;;
1308;SDS011;647;48.840;9.314;2022-09-01T12:37:09;58.37;;;3.20;;
1308;SDS011;647;48.840;9.314;2022-09-01T12:39:37;58.00;;;3.20;;
1308;SDS011;647;48.840;9.314;2022-09-01T12:42:21;57.80;;;2.47;;
1308;SDS011;647;48.840;9.314;2022-09-01T12:44:50;57.90;;;2.80;;
1308;SDS011;647;48.840;9.314;2022-09-01T12:50:05;58.37;;;3.23;;
1308;SDS011;647;48.840;9.314;2022-09-01T12:52:34;57.63;;;2.73;;
1308;SDS011;647;48.840;9.314;2022-09-01T12:55:10;58.00;;;3.20;;
1308;SDS011;647;48.840;9.314;2022-09-01T12:57:40;58.13;;;3.33;;
1308;SDS011;647;48.840;9.314;2022-09-01T13:00:14;58.43;;;3.07;;
1308;SDS011;647;48.840;9.314;2022-09-01T13:02:44;57.60;;;2.67;;
1308;SDS011;647;48.840;9.314;2022-09-01T13:05:19;57.60;;;2.60;;
1308;SDS011;647;48.840;9.314;2022-09-01T13:07:47;58.70;;;3.57;;
1308;SDS011;647;48.840;9.314;2022-09-01T13:10:14;57.90;;;2.80;;
1308;SDS011;647;48.840;9.314;2022-09-01T13:12:42;57.70;;;2.87;;
1308;SDS011;647;48.840;9.314;2022-09-01T13:15:10;57.30;;;2.60;;
1308;SDS011;647;48.840;9.314;2022-09-01T13:17:37;57.30;;;2.40;;
1308;SDS011;647;48.840;9.314;2022-09-01T13:20:05;59.97;;;3.70;;
1308;SDS011;647;48.840;9.314;2022-09-01T13:22:32;57.80;;;2.93;;
1308;SDS011;647;48.840;9.314;2022-09-01T13:25:01;57.47;;;2.70;;
1308;SDS011;647;48.840;9.314;2022-09-01T13:27:28;57.90;;;2.60;;
1308;SDS011;647;48.840;9.314;2022-09-01T13:29:55;57.90;;;2.50;;
1308;SDS011;647;48.840;9.314;2022-09-01T13:32:22;57.60;;;2.60;;
1308;SDS011;647;48.840;9.314;2022-09-01T13:34:50;57.67;;;2.80;;
1308;SDS011;647;48.840;9.314;2022-09-01T13:37:18;57.40;;;2.53;;
1308;SDS011;647;48.840;9.314;2022-09-01T13:39:45;57.33;;;2.40;;
1308;SDS011;647;48.840;9.314;2022-09-01T13:42:15;58.07;;;2.80;;
1308;SDS011;647;48.840;9.314;2022-09-01T13:44:42;57.77;;;2.73;;
1308;SDS011;647;48.840;9.314;2022-09-01T13:47:11;57.93;;;2.47;;
1308;SDS011;647;48.840;9.314;2022-09-01T13:49:38;57.57;;;2.33;;
1308;SDS011;647;48.840;9.314;2022-09-01T13:52:05;59.90;;;2.30;;
1308;SDS011;647;48.840;9.314;2022-09-01T13:54:32;59.87;;;2.80;;
1308;SDS011;647;48.840;9.314;2022-09-01T13:56:59;57.50;;;2.67;;
1308;SDS011;647;48.840;9.314;2022-09-01T13:59:28;57.47;;;2.40;;
1308;SDS011;647;48.840;9.314;2022-09-01T14:01:56;57.20;;;2.40;;
1308;SDS011;647;48.840;9.314;2022-09-01T14:04:23;57.60;;;2.53;;
1308;SDS011;647;48.840;9.314;2022-09-01T14:06:50;57.80;;;2.73;;
1308;SDS011;647;48.840;9.314;2022-09-01T14:09:17;58.07;;;2.60;;
1308;SDS011;647;48.840;9.314;2022-09-01T14:11:45;57.60;;;2.47;;
1308;SDS011;647;48.840;9.314;2022-09-01T14:14:12;57.90;;;2.63;;
1308;SDS011;647;48.840;9.314;2022-09-01T14:16:40;57.67;;;2.50;;
1308;SDS011;647;48.840;9.314;2022-09-01T14:19:07;58.57;;;2.87;;
1308;SDS011;647;48.840;9.314;2022-09-01T14:21:37;58.20;;;3.10;;
1308;SDS011;647;48.840;9.314;2022-09-01T14:24:04;57.80;;;2.63;;
1308;SDS011;647;48.840;9.314;2022-09-01T14:26:32;58.67;;;2.87;;
1308;SDS011;647;48.840;9.314;2022-09-01T14:29:00;57.97;;;2.77;;
1308;SDS011;647;48.840;9.314;2022-09-01T14:31:27;57.57;;;2.60;;
1308;SDS011;647;48.840;9.314;2022-09-01T14:33:57;57.30;;;2.27;;
1308;SDS011;647;48.840;9.314;2022-09-01T14:36:25;57.90;;;3.03;;
1308;SDS011;647;48.840;9.314;2022-09-01T14:38:53;57.30;;;2.17;;
1308;SDS011;647;48.840;9.314;2022-09-01T14:41:21;57.90;;;2.67;;
1308;SDS011;647;48.840;9.314;2022-09-01T14:43:49;58.10;;;3.00;;
1308;SDS011;647;48.840;9.314;2022-09-01T14:46:16;58.50;;;2.70;;
1308;SDS011;647;48.840;9.314;2022-09-01T14:48:44;57.67;;;2.50;;
1308;SDS011;647;48.840;9.314;2022-09-01T14:51:18;58.40;;;3.10;;
1308;SDS011;647;48.840;9.314;2022-09-01T14:53:46;58.20;;;2.83;;
1308;SDS011;647;48.840;9.314;2022-09-01T14:56:13;57.57;;;3.17;;
1308;SDS011;647;48.840;9.314;2022-09-01T14:58:42;57.80;;;2.70;;
1308;SDS011;647;48.840;9.314;2022-09-01T15:01:11;57.33;;;2.40;;
1308;SDS011;647;48.840;9.314;2022-09-01T15:03:38;57.60;;;2.43;;
1308;SDS011;647;48.840;9.314;2022-09-01T15:06:06;57.80;;;2.60;;
1308;SDS011;647;48.840;9.314;2022-09-01T15:08:35;58.10;;;2.80;;
1308;SDS011;647;48.840;9.314;2022-09-01T15:11:02;58.10;;;2.77;;
1308;SDS011;647;48.840;9.314;2022-09-01T15:13:33;60.03;;;2.93;;
1308;SDS011;647;48.840;9.314;2022-09-01T15:16:00;57.90;;;2.60;;
1308;SDS011;647;48.840;9.314;2022-09-01T15:18:28;59.80;;;2.90;;
1308;SDS011;647;48.840;9.314;2022-09-01T15:20:55;57.67;;;2.77;;
1308;SDS011;647;48.840;9.314;2022-09-01T15:23:23;57.87;;;2.43;;
1308;SDS011;647;48.840;9.314;2022-09-01T15:25:52;60.47;;;2.80;;
1308;SDS011;647;48.840;9.314;2022-09-01T15:28:19;58.10;;;2.77;;
1308;SDS011;647;48.840;9.314;2022-09-01T15:30:47;58.03;;;2.77;;
1308;SDS011;647;48.840;9.314;2022-09-01T15:33:15;57.90;;;2.80;;
1308;SDS011;647;48.840;9.314;2022-09-01T15:35:42;58.17;;;2.73;;
1308;SDS011;647;48.840;9.314;2022-09-01T15:38:10;57.53;;;2.80;;